createdAt,value
2022-08-10T00:02:39.613Z,4.50
2022-08-10T00:05:29.048Z,4.30
2022-08-10T00:08:32.532Z,4.60
2022-08-10T00:11:21.485Z,4.75
2022-08-10T00:14:10.025Z,4.60
2022-08-10T00:17:00.013Z,4.90
2022-08-10T00:20:04.226Z,5.15
2022-08-10T00:22:57.929Z,5.28
2022-08-10T00:25:46.715Z,4.88
2022-08-10T00:28:35.355Z,4.90
2022-08-10T00:31:23.838Z,4.70
2022-08-10T00:34:14.007Z,4.65
2022-08-10T00:37:03.147Z,5.13
2022-08-10T00:39:51.707Z,4.35
2022-08-10T00:42:40.289Z,4.70
2022-08-10T00:45:28.908Z,4.78
2022-08-10T00:48:17.447Z,5.07
2022-08-10T00:51:07.643Z,4.82
2022-08-10T00:53:56.204Z,4.70
2022-08-10T00:57:15.727Z,4.20
2022-08-10T00:59:59.276Z,4.63
2022-08-10T01:02:48.738Z,4.75
2022-08-10T01:05:51.265Z,5.15
2022-08-10T01:08:52.041Z,5.35
2022-08-10T01:12:39.169Z,4.60
2022-08-10T01:15:03.863Z,4.53
2022-08-10T01:17:57.559Z,5.22
2022-08-10T01:21:05.934Z,4.88
2022-08-10T01:24:08.758Z,4.65
2022-08-10T01:27:14.013Z,4.80
2022-08-10T01:30:07.748Z,4.63
2022-08-10T01:33:10.782Z,4.72
2022-08-10T01:36:03.020Z,5.30
2022-08-10T01:38:53.963Z,4.95
2022-08-10T01:41:46.610Z,4.60
2022-08-10T01:44:38.524Z,4.88
2022-08-10T01:47:49.805Z,5.15
2022-08-10T01:50:59.783Z,5.20
2022-08-10T01:53:53.123Z,5.07
2022-08-10T01:56:44.919Z,4.22
2022-08-10T01:59:37.764Z,5.10
2022-08-10T02:02:30.643Z,4.63
2022-08-10T02:05:19.876Z,4.93
2022-08-10T02:08:12.653Z,5.00
2022-08-10T02:11:03.391Z,4.97
2022-08-10T02:13:53.445Z,4.82
2022-08-10T02:16:45.665Z,4.78
2022-08-10T02:19:37.534Z,4.78
2022-08-10T02:22:37.738Z,4.63
2022-08-10T02:25:40.830Z,5.00
2022-08-10T02:28:35.364Z,5.15
2022-08-10T02:31:29.728Z,4.68
2022-08-10T02:34:21.051Z,5.07
2022-08-10T02:37:13.493Z,4.90
2022-08-10T02:40:02.131Z,5.13
2022-08-10T02:45:24.117Z,4.80
2022-08-10T02:46:14.319Z,4.47
2022-08-10T02:49:14.171Z,4.35
2022-08-10T02:52:08.959Z,4.70
2022-08-10T02:55:06.114Z,4.88
2022-08-10T02:58:12.680Z,4.82
2022-08-10T03:01:14.370Z,4.65
2022-08-10T03:04:06.105Z,4.55
2022-08-10T03:06:59.232Z,4.78
2022-08-10T03:09:48.640Z,4.63
2022-08-10T03:12:40.688Z,4.95
2022-08-10T03:15:30.690Z,4.38
2022-08-10T03:18:20.823Z,4.68
2022-08-10T03:21:12.025Z,4.40
2022-08-10T03:24:02.693Z,4.65
2022-08-10T03:27:12.356Z,4.93
2022-08-10T03:30:31.891Z,4.78
2022-08-10T03:33:13.695Z,4.78
2022-08-10T03:36:43.572Z,4.60
2022-08-10T03:39:11.636Z,4.72
2022-08-10T03:42:06.186Z,4.93
2022-08-10T03:44:56.004Z,5.05
2022-08-10T03:47:47.150Z,4.63
2022-08-10T03:50:51.388Z,4.53
2022-08-10T03:54:06.154Z,4.20
2022-08-10T03:56:51.631Z,4.60
2022-08-10T03:59:40.594Z,4.43
2022-08-10T04:02:44.496Z,5.60
2022-08-10T04:05:39.109Z,4.50
2022-08-10T04:08:27.907Z,4.70
2022-08-10T04:11:16.471Z,4.88
2022-08-10T04:14:05.112Z,4.45
2022-08-10T04:16:53.672Z,5.47
2022-08-10T04:19:46.934Z,5.00
2022-08-10T04:22:39.067Z,4.93
2022-08-10T04:25:28.368Z,4.90
2022-08-10T04:28:17.964Z,4.85
2022-08-10T04:31:09.668Z,4.63
2022-08-10T04:34:06.058Z,5.07
2022-08-10T04:37:02.544Z,5.28
2022-08-10T04:39:55.991Z,5.43
2022-08-10T04:42:45.090Z,5.35
2022-08-10T04:45:48.716Z,5.22
2022-08-10T04:48:59.485Z,5.05
2022-08-10T04:51:48.591Z,5.47
2022-08-10T04:54:37.564Z,4.85
2022-08-10T04:57:27.910Z,5.15
2022-08-10T05:00:19.049Z,5.43
2022-08-10T05:03:08.031Z,4.90
2022-08-10T05:05:57.076Z,5.43
2022-08-10T05:08:50.049Z,5.05
2022-08-10T05:11:38.560Z,4.40
2022-08-10T05:14:28.555Z,4.50
2022-08-10T05:17:17.103Z,4.65
2022-08-10T05:20:08.146Z,4.25
2022-08-10T05:22:56.802Z,4.53
2022-08-10T05:25:45.546Z,4.70
2022-08-10T05:28:34.134Z,4.18
2022-08-10T05:31:25.324Z,4.60
2022-08-10T05:34:20.767Z,4.85
2022-08-10T05:38:09.660Z,3.90
2022-08-10T05:40:19.583Z,4.20
2022-08-10T05:43:08.741Z,4.43
2022-08-10T05:46:16.809Z,4.13
2022-08-10T05:49:07.173Z,4.68
2022-08-10T05:51:55.734Z,4.72
2022-08-10T05:54:44.921Z,4.82
2022-08-10T05:57:36.335Z,4.20
2022-08-10T06:00:36.317Z,4.60
2022-08-10T06:03:38.713Z,4.15
2022-08-10T06:06:31.186Z,4.20
2022-08-10T06:09:21.602Z,3.92
2022-08-10T06:12:35.261Z,4.22
2022-08-10T06:15:21.374Z,4.68
2022-08-10T06:18:12.986Z,4.22
2022-08-10T06:21:02.673Z,4.10
2022-08-10T06:23:54.089Z,4.50
2022-08-10T06:26:42.865Z,4.30
2022-08-10T06:29:34.742Z,4.28
2022-08-10T06:32:28.553Z,5.40
2022-08-10T06:35:19.072Z,3.95
2022-08-10T06:38:09.790Z,4.13
2022-08-10T06:41:03.711Z,4.50
2022-08-10T06:43:58.297Z,3.92
2022-08-10T06:46:51.970Z,3.95
2022-08-10T06:49:40.570Z,3.90
2022-08-10T06:52:31.824Z,3.85
2022-08-10T06:55:23.371Z,3.70
2022-08-10T06:58:36.658Z,3.72
2022-08-10T07:01:29.495Z,3.50
2022-08-10T07:04:32.938Z,3.60
2022-08-10T07:07:30.596Z,3.70
2022-08-10T07:10:26.274Z,3.58
2022-08-10T07:14:17.272Z,4.38
2022-08-10T07:16:43.777Z,4.22
2022-08-10T07:19:33.947Z,3.70
2022-08-10T07:23:01.139Z,2.75
2022-08-10T07:25:52.991Z,2.50
2022-08-10T07:28:47.849Z,3.00
2022-08-10T07:31:55.891Z,2.92
2022-08-10T07:34:48.197Z,2.78
2022-08-10T07:37:38.486Z,2.58
2022-08-10T07:40:27.883Z,3.03
2022-08-10T07:43:18.222Z,3.28
2022-08-10T07:46:14.015Z,2.25
2022-08-10T07:49:15.341Z,2.80
2022-08-10T07:52:10.537Z,2.63
2022-08-10T07:55:00.389Z,2.40
2022-08-10T07:57:52.268Z,2.20
2022-08-10T08:00:42.061Z,2.50
2022-08-10T08:03:33.719Z,2.65
2022-08-10T08:06:22.698Z,3.08
2022-08-10T08:09:11.971Z,2.78
2022-08-10T08:12:01.487Z,3.30
2022-08-10T08:14:52.015Z,3.20
2022-08-10T08:17:41.853Z,3.42
2022-08-10T08:20:32.300Z,2.60
2022-08-10T08:24:06.551Z,2.58
2022-08-10T08:26:31.944Z,2.53
2022-08-10T08:29:24.993Z,2.45
2022-08-10T08:32:16.374Z,2.03
2022-08-10T08:35:08.352Z,1.70
2022-08-10T08:38:33.504Z,2.03
2022-08-10T08:41:25.325Z,1.90
2022-08-10T08:44:22.775Z,1.90
2022-08-10T08:48:03.571Z,1.80
2022-08-10T08:50:59.504Z,1.92
2022-08-10T08:54:03.965Z,2.33
2022-08-10T08:57:04.659Z,2.30
2022-08-10T09:00:05.480Z,2.10
2022-08-10T09:03:28.625Z,2.00
2022-08-10T09:06:43.912Z,2.70
2022-08-10T09:10:04.644Z,1.65
2022-08-10T09:13:00.545Z,1.90
2022-08-10T09:16:00.469Z,2.10
2022-08-10T09:18:53.550Z,1.90
2022-08-10T09:21:58.617Z,2.28
2022-08-10T09:25:01.932Z,1.80
2022-08-10T09:27:57.892Z,1.95
2022-08-10T09:31:21.066Z,2.20
2022-08-10T09:36:24.405Z,1.75
2022-08-10T09:37:39.965Z,1.58
2022-08-10T09:41:00.369Z,1.70
2022-08-10T09:43:58.019Z,1.90
2022-08-10T09:46:58.856Z,1.90
2022-08-10T09:50:04.442Z,1.52
2022-08-10T09:53:08.919Z,1.70
2022-08-10T09:56:17.881Z,1.60
2022-08-10T09:59:27.162Z,1.70
2022-08-10T10:02:33.708Z,2.00
2022-08-10T10:05:52.378Z,1.80
2022-08-10T10:08:58.317Z,2.20
2022-08-10T10:12:16.472Z,2.33
2022-08-10T10:15:25.261Z,2.67
2022-08-10T10:18:28.411Z,2.28
2022-08-10T10:21:55.517Z,2.10
2022-08-10T10:24:44.075Z,2.10
2022-08-10T10:27:41.317Z,2.17
2022-08-10T10:30:37.602Z,1.67
2022-08-10T10:33:34.445Z,2.13
2022-08-10T10:36:24.941Z,2.28
2022-08-10T10:39:16.945Z,2.17
2022-08-10T10:42:42.183Z,2.08
2022-08-10T10:45:39.006Z,1.63
2022-08-10T10:48:39.814Z,2.03
2022-08-10T10:51:34.308Z,1.92
2022-08-10T10:54:29.392Z,1.80
2022-08-10T10:57:59.007Z,1.80
2022-08-10T11:00:44.925Z,1.73
2022-08-10T11:03:49.082Z,1.50
2022-08-10T11:06:50.639Z,1.63
2022-08-10T11:10:09.306Z,2.15
2022-08-10T11:14:26.908Z,2.30
2022-08-10T11:16:18.879Z,2.35
2022-08-10T11:19:16.046Z,1.92
2022-08-10T11:22:16.425Z,2.22
2022-08-10T11:25:11.384Z,2.00
2022-08-10T11:28:13.872Z,1.83
2022-08-10T11:31:08.116Z,2.10
2022-08-10T11:34:48.216Z,2.03
2022-08-10T11:37:19.842Z,2.47
2022-08-10T11:40:16.910Z,2.60
2022-08-10T11:43:11.824Z,2.20
2022-08-10T11:46:10.985Z,2.47
2022-08-10T11:49:07.360Z,2.20
2022-08-10T11:51:59.179Z,2.05
2022-08-10T11:54:53.638Z,2.67
2022-08-10T11:57:53.070Z,1.80
2022-08-10T12:00:43.033Z,1.40
2022-08-10T12:03:34.975Z,1.40
2022-08-10T12:06:54.133Z,1.50
2022-08-10T12:10:09.415Z,1.60
2022-08-10T12:12:51.909Z,1.50
2022-08-10T12:15:47.449Z,1.88
2022-08-10T12:18:46.289Z,1.50
2022-08-10T12:21:42.715Z,1.20
2022-08-10T12:24:39.093Z,1.60
2022-08-10T12:27:33.093Z,1.65
2022-08-10T12:30:27.750Z,2.03
2022-08-10T12:33:24.298Z,1.60
2022-08-10T12:36:19.069Z,2.15
2022-08-10T12:39:16.967Z,2.60
2022-08-10T12:42:10.442Z,1.90
2022-08-10T12:45:04.578Z,1.60
2022-08-10T12:48:01.383Z,1.90
2022-08-10T12:50:56.898Z,1.65
2022-08-10T12:53:54.176Z,1.70
2022-08-10T12:56:48.130Z,1.80
2022-08-10T12:59:43.260Z,1.90
2022-08-10T13:02:34.614Z,1.70
2022-08-10T13:05:27.613Z,1.77
2022-08-10T13:08:34.391Z,1.80
2022-08-10T13:12:44.239Z,1.60
2022-08-10T13:14:47.665Z,1.70
2022-08-10T13:17:42.703Z,1.58
2022-08-10T13:20:35.797Z,1.63
2022-08-10T13:23:28.199Z,1.42
2022-08-10T13:26:23.605Z,1.60
2022-08-10T13:29:17.652Z,1.60
2022-08-10T13:32:15.592Z,1.20
2022-08-10T13:35:09.181Z,1.23
2022-08-10T13:38:01.987Z,1.40
2022-08-10T13:40:51.558Z,1.83
2022-08-10T13:43:51.773Z,1.42
2022-08-10T13:46:42.437Z,1.50
2022-08-10T13:49:43.445Z,1.88
2022-08-10T13:52:33.032Z,2.00
2022-08-10T13:55:25.049Z,2.05
2022-08-10T13:58:15.761Z,2.20
2022-08-10T14:01:11.391Z,1.80
2022-08-10T14:04:02.310Z,2.10
2022-08-10T14:06:56.480Z,1.80
2022-08-10T14:09:47.796Z,1.63
2022-08-10T14:12:38.771Z,1.60
2022-08-10T14:15:31.119Z,2.17
2022-08-10T14:18:21.177Z,1.80
2022-08-10T14:21:10.357Z,2.00
2022-08-10T14:24:00.265Z,2.00
2022-08-10T14:26:49.947Z,1.95
2022-08-10T14:29:43.684Z,2.00
2022-08-10T14:32:33.415Z,2.22
2022-08-10T14:36:20.314Z,2.05
2022-08-10T14:38:36.484Z,1.98
2022-08-10T14:42:01.085Z,1.77
2022-08-10T14:44:47.439Z,1.80
2022-08-10T14:47:53.207Z,2.10
2022-08-10T14:50:55.778Z,2.58
2022-08-10T14:53:51.864Z,2.15
2022-08-10T14:56:42.961Z,2.00
2022-08-10T15:00:22.399Z,2.00
2022-08-10T15:02:56.047Z,2.00
2022-08-10T15:05:47.423Z,2.28
2022-08-10T15:08:37.344Z,2.20
2022-08-10T15:12:12.264Z,2.10
2022-08-10T15:14:45.047Z,2.15
2022-08-10T15:17:37.642Z,2.58
2022-08-10T15:20:28.537Z,2.22
2022-08-10T15:23:30.737Z,1.98
2022-08-10T15:26:22.079Z,2.20
2022-08-10T15:29:24.113Z,2.17
2022-08-10T15:32:33.206Z,2.10
2022-08-10T15:35:42.022Z,2.50
2022-08-10T15:38:35.018Z,2.13
2022-08-10T15:41:58.783Z,2.40
2022-08-10T15:44:50.089Z,2.03
2022-08-10T15:47:44.992Z,2.90
2022-08-10T15:50:41.482Z,2.10
2022-08-10T15:53:49.918Z,2.47
2022-08-10T15:56:46.034Z,2.58
2022-08-10T15:59:42.815Z,2.17
2022-08-10T16:02:36.763Z,2.38
2022-08-10T16:06:00.890Z,2.00
2022-08-10T16:08:56.491Z,2.42
2022-08-10T16:11:55.344Z,2.17
2022-08-10T16:14:49.286Z,2.50
2022-08-10T16:17:54.889Z,2.70
2022-08-10T16:20:54.558Z,2.30
2022-08-10T16:24:14.255Z,2.38
2022-08-10T16:26:58.331Z,2.42
2022-08-10T16:29:55.796Z,2.30
2022-08-10T16:32:47.511Z,2.47
2022-08-10T16:35:37.044Z,2.40
2022-08-10T16:38:28.145Z,2.28
2022-08-10T16:42:00.170Z,2.85
2022-08-10T16:44:34.491Z,2.88
2022-08-10T16:47:28.735Z,2.50
2022-08-10T16:50:24.296Z,3.20
2022-08-10T16:53:15.545Z,2.42
2022-08-10T16:56:08.550Z,2.40
2022-08-10T16:58:58.825Z,2.53
2022-08-10T17:01:51.552Z,2.40
2022-08-10T17:04:45.218Z,2.85
2022-08-10T17:07:35.537Z,2.53
2022-08-10T17:10:25.059Z,2.83
2022-08-10T17:13:16.184Z,2.40
2022-08-10T17:16:08.422Z,2.70
2022-08-10T17:18:59.448Z,2.42
2022-08-10T17:21:52.771Z,2.40
2022-08-10T17:24:47.391Z,2.55
2022-08-10T17:28:03.844Z,2.40
2022-08-10T17:30:58.058Z,2.20
2022-08-10T17:33:49.717Z,3.20
2022-08-10T17:36:39.110Z,2.25
2022-08-10T17:39:33.705Z,2.35
2022-08-10T17:42:23.535Z,2.42
2022-08-10T17:45:46.693Z,2.53
2022-08-10T17:48:32.549Z,2.63
2022-08-10T17:51:22.261Z,2.20
2022-08-10T17:54:24.845Z,2.55
2022-08-10T17:57:18.540Z,2.85
2022-08-10T18:00:11.196Z,2.35
2022-08-10T18:03:01.573Z,2.65
2022-08-10T18:05:55.980Z,2.97
2022-08-10T18:08:51.135Z,2.80
2022-08-10T18:11:44.618Z,2.70
2022-08-10T18:14:35.087Z,3.40
2022-08-10T18:17:25.593Z,3.00
2022-08-10T18:20:20.100Z,3.33
2022-08-10T18:23:11.666Z,2.83
2022-08-10T18:26:05.182Z,2.67
2022-08-10T18:28:56.778Z,2.55
2022-08-10T18:31:46.405Z,2.60
2022-08-10T18:34:36.614Z,2.70
2022-08-10T18:37:28.293Z,2.80
2022-08-10T18:40:20.116Z,2.70
2022-08-10T18:44:05.720Z,2.85
2022-08-10T18:46:29.024Z,2.72
2022-08-10T18:49:28.352Z,2.90
2022-08-10T18:52:18.541Z,2.75
2022-08-10T18:55:14.266Z,2.83
2022-08-10T18:59:02.116Z,2.90
2022-08-10T19:02:04.661Z,2.90
2022-08-10T19:05:30.692Z,2.70
2022-08-10T19:08:49.450Z,2.60
2022-08-10T19:11:55.573Z,3.00
2022-08-10T19:14:56.100Z,2.67
2022-08-10T19:18:03.277Z,2.55
2022-08-10T19:20:59.101Z,2.55
2022-08-10T19:24:06.016Z,2.70
2022-08-10T19:27:04.202Z,2.60
2022-08-10T19:30:13.644Z,2.55
2022-08-10T19:33:13.366Z,2.67
2022-08-10T19:36:11.080Z,3.92
2022-08-10T19:39:15.671Z,4.47
2022-08-10T19:42:12.141Z,3.00
2022-08-10T19:45:56.116Z,5.13
2022-08-10T19:48:35.925Z,7.38
2022-08-10T19:51:29.978Z,3.28
2022-08-10T19:54:26.775Z,3.30
2022-08-10T19:57:26.469Z,3.60
2022-08-10T20:00:23.014Z,3.40
2022-08-10T20:03:22.008Z,4.07
2022-08-10T20:06:20.630Z,3.72
2022-08-10T20:09:17.619Z,3.70
2022-08-10T20:12:09.515Z,3.47
2022-08-10T20:15:05.003Z,3.70
2022-08-10T20:17:58.459Z,3.28
2022-08-10T20:20:50.590Z,3.75
2022-08-10T20:23:55.366Z,3.70
2022-08-10T20:26:47.896Z,3.83
2022-08-10T20:29:58.951Z,3.50
2022-08-10T20:32:51.955Z,3.88
2022-08-10T20:35:55.122Z,3.70
2022-08-10T20:38:51.185Z,4.40
2022-08-10T20:41:58.505Z,3.85
2022-08-10T20:44:55.838Z,4.00
2022-08-10T20:47:54.749Z,3.72
2022-08-10T20:50:48.034Z,3.83
2022-08-10T20:53:45.326Z,3.53
2022-08-10T20:56:43.348Z,3.30
2022-08-10T21:00:03.987Z,3.80
2022-08-10T21:03:20.741Z,3.42
2022-08-10T21:06:42.253Z,3.85
2022-08-10T21:09:50.141Z,4.32
2022-08-10T21:13:09.366Z,3.60
2022-08-10T21:16:10.878Z,4.05
2022-08-10T21:19:20.047Z,4.15
2022-08-10T21:22:15.762Z,3.72
2022-08-10T21:25:09.851Z,3.85
2022-08-10T21:28:16.719Z,4.10
2022-08-10T21:31:26.060Z,4.07
2022-08-10T21:34:32.187Z,4.68
2022-08-10T21:37:26.651Z,3.63
2022-08-10T21:40:40.561Z,3.60
2022-08-10T21:43:59.654Z,4.18
2022-08-10T21:47:27.117Z,3.70
2022-08-10T21:50:45.782Z,3.58
2022-08-10T21:53:57.489Z,3.83
2022-08-10T21:57:12.561Z,3.72
2022-08-10T22:03:50.542Z,3.38
2022-08-10T22:07:03.868Z,3.67
2022-08-10T22:10:13.875Z,3.45
2022-08-10T22:13:26.899Z,3.58
2022-08-10T22:16:45.799Z,3.72
2022-08-10T22:19:54.858Z,3.55
2022-08-10T22:23:04.490Z,3.40
2022-08-10T22:26:41.331Z,3.30
2022-08-10T22:29:56.110Z,3.83
2022-08-10T22:33:23.253Z,4.00
2022-08-10T22:37:10.562Z,4.53
2022-08-10T22:40:22.186Z,4.35
2022-08-10T22:43:37.509Z,4.13
2022-08-10T22:46:48.377Z,4.22
2022-08-10T22:49:35.938Z,4.25
2022-08-10T22:52:29.204Z,3.97
2022-08-10T22:55:47.488Z,3.88
2022-08-10T22:58:41.997Z,4.30
2022-08-10T23:01:42.260Z,3.95
2022-08-10T23:04:54.380Z,4.18
2022-08-10T23:07:50.481Z,4.82
2022-08-10T23:10:42.725Z,4.80
2022-08-10T23:13:36.200Z,4.38
2022-08-10T23:16:46.918Z,4.63
2022-08-10T23:19:41.766Z,4.72
2022-08-10T23:22:35.518Z,4.15
2022-08-10T23:25:30.144Z,4.20
2022-08-10T23:28:39.315Z,4.22
2022-08-10T23:32:00.613Z,3.38
2022-08-10T23:36:30.146Z,3.38
2022-08-10T23:37:57.615Z,3.33
2022-08-10T23:40:48.413Z,3.40
2022-08-10T23:44:02.929Z,3.00
2022-08-10T23:46:50.910Z,2.95
2022-08-10T23:49:40.270Z,3.55
2022-08-10T23:52:34.965Z,2.97
2022-08-10T23:55:26.333Z,3.58
2022-08-10T23:58:31.841Z,3.60
